Time;durP1;ratioP1;P1;durP2;ratioP2;P2;SDS_P1;SDS_P2;PMS_P1;PMS_P2;Temp;Humidity;BMP_temperature;BMP_pressure;BME280_temperature;BME280_humidity;BME280_pressure;Samples;Min_cycle;Max_cycle;Signal;HPM_P1;HPM_P2
2022/09/02 00:01:58;;;;;;;0.08;0.08;;;14.30;99.90;;;;;;4995216;28;20507;-82
2022/09/02 00:04:26;;;;;;;0.30;0.20;;;14.30;99.90;;;;;;5010255;28;20484;-82
2022/09/02 00:06:53;;;;;;;0.30;0.30;;;14.30;99.90;;;;;;5027207;28;20042;-86
2022/09/02 00:09:23;;;;;;;0.20;0.20;;;14.30;99.90;;;;;;4994844;28;20425;-85
2022/09/02 00:11:52;;;;;;;0.52;0.30;;;14.20;99.90;;;;;;5010471;28;20101;-81
2022/09/02 00:14:24;;;;;;;0.20;0.20;;;14.20;99.90;;;;;;4994971;28;20042;-86
2022/09/02 00:16:51;;;;;;;0.38;0.10;;;14.10;99.90;;;;;;4994756;28;20038;-82
2022/09/02 00:19:20;;;;;;;0.20;0.20;;;14.10;99.90;;;;;;4994935;28;20121;-82
2022/09/02 00:21:48;;;;;;;0.10;0.10;;;14.10;99.90;;;;;;5005655;28;20475;-86
2022/09/02 00:24:14;;;;;;;0.30;0.30;;;14.10;99.90;;;;;;4994506;28;20420;-86
2022/09/02 00:26:42;;;;;;;0.10;0.10;;;14.10;99.90;;;;;;4994218;28;20030;-86
2022/09/02 00:29:09;;;;;;;0.28;0.15;;;14.00;99.90;;;;;;5005533;28;20042;-86
2022/09/02 00:31:36;;;;;;;0.22;0.20;;;14.00;99.90;;;;;;4997900;28;20420;-85
2022/09/02 00:34:04;;;;;;;0.10;0.10;;;13.90;99.90;;;;;;5014197;28;20078;-86
2022/09/02 00:36:32;;;;;;;0.13;0.13;;;13.90;99.90;;;;;;4994272;28;20042;-86
2022/09/02 00:38:58;;;;;;;0.10;0.10;;;13.80;99.90;;;;;;4994305;28;20045;-86
2022/09/02 00:41:27;;;;;;;0.20;0.20;;;13.80;99.90;;;;;;4978793;28;20411;-82
2022/09/02 00:43:57;;;;;;;0.20;0.20;;;13.80;99.90;;;;;;4994489;28;20046;-86
2022/09/02 00:46:27;;;;;;;0.13;0.13;;;13.70;99.90;;;;;;5011818;28;20493;-82
2022/09/02 00:49:04;;;;;;;0.10;0.10;;;13.80;99.90;;;;;;5013314;28;20054;-82
2022/09/02 00:51:37;;;;;;;0.10;0.10;;;13.70;99.90;;;;;;5013993;28;20049;-82
2022/09/02 00:54:05;;;;;;;0.20;0.20;;;13.70;99.90;;;;;;5013548;28;20046;-81
2022/09/02 00:56:34;;;;;;;0.30;0.30;;;13.60;99.90;;;;;;5013895;28;20038;-82
2022/09/02 00:59:01;;;;;;;0.10;0.10;;;13.50;99.90;;;;;;4998047;28;20458;-86
2022/09/02 01:01:28;;;;;;;0.20;0.20;;;13.50;99.90;;;;;;4997764;28;20042;-82
2022/09/02 01:03:55;;;;;;;0.20;0.20;;;13.40;99.90;;;;;;5012933;28;20057;-82
2022/09/02 01:06:24;;;;;;;0.10;0.10;;;13.40;99.90;;;;;;5012531;28;20058;-81
2022/09/02 01:08:58;;;;;;;0.20;0.20;;;13.30;99.90;;;;;;5029549;28;20050;-86
2022/09/02 01:11:37;;;;;;;0.40;0.40;;;13.30;99.90;;;;;;5029756;28;20042;-82
2022/09/02 01:14:06;;;;;;;0.20;0.20;;;13.30;99.90;;;;;;5029550;28;20471;-87
2022/09/02 01:16:39;;;;;;;0.13;0.13;;;13.20;99.90;;;;;;5029886;28;20092;-82
2022/09/02 01:19:14;;;;;;;0.25;0.22;;;13.20;99.90;;;;;;5046117;28;20038;-82
2022/09/02 01:21:49;;;;;;;0.10;0.10;;;13.10;99.90;;;;;;5046202;28;20052;-82
2022/09/02 01:24:19;;;;;;;0.20;0.20;;;13.20;99.90;;;;;;5029690;28;20041;-82
2022/09/02 01:26:46;;;;;;;0.20;0.20;;;13.10;99.90;;;;;;5029271;28;20116;-86
2022/09/02 01:29:15;;;;;;;0.10;0.10;;;13.10;99.90;;;;;;5046201;28;20092;-82
2022/09/02 01:31:41;;;;;;;0.20;0.20;;;13.10;99.90;;;;;;5013540;28;20046;-86
2022/09/02 01:34:08;;;;;;;0.52;0.35;;;13.00;99.90;;;;;;4997270;28;20045;-82
2022/09/02 01:36:40;;;;;;;0.10;0.10;;;13.00;99.90;;;;;;4999345;28;20499;-82
2022/09/02 01:39:08;;;;;;;0.10;0.10;;;13.00;99.90;;;;;;5016756;28;20049;-82
2022/09/02 01:41:35;;;;;;;0.20;0.20;;;12.90;99.90;;;;;;5017552;28;20037;-82
2022/09/02 01:44:04;;;;;;;0.55;0.20;;;12.90;99.90;;;;;;5017125;28;20175;-86
2022/09/02 01:46:33;;;;;;;0.10;0.10;;;12.90;99.90;;;;;;5049935;28;20042;-82
2022/09/02 01:48:59;;;;;;;0.10;0.10;;;12.80;99.90;;;;;;5017084;28;20042;-82
2022/09/02 01:51:27;;;;;;;0.10;0.10;;;12.80;99.90;;;;;;5017076;28;20407;-85
2022/09/02 01:53:54;;;;;;;0.10;0.10;;;12.70;99.90;;;;;;5016889;28;20050;-86
2022/09/02 01:56:20;;;;;;;0.20;0.20;;;12.70;99.90;;;;;;5033196;28;20041;-87
2022/09/02 01:58:48;;;;;;;0.15;0.15;;;12.70;99.90;;;;;;5000601;28;20049;-82
2022/09/02 02:01:14;;;;;;;0.10;0.10;;;12.60;99.90;;;;;;5001090;28;20108;-86
2022/09/02 02:03:41;;;;;;;0.10;0.10;;;12.60;99.90;;;;;;5016741;28;20042;-82
2022/09/02 02:06:13;;;;;;;0.10;0.10;;;12.50;99.90;;;;;;5032560;28;20049;-82
2022/09/02 02:08:41;;;;;;;0.40;0.30;;;12.50;99.90;;;;;;5032702;28;20502;-86
2022/09/02 02:11:08;;;;;;;0.15;0.15;;;12.50;99.90;;;;;;5000343;28;20049;-82
2022/09/02 02:13:35;;;;;;;0.13;0.13;;;12.50;99.90;;;;;;5016123;28;20053;-82
2022/09/02 02:16:03;;;;;;;0.20;0.20;;;12.50;99.90;;;;;;5032228;28;20049;-86
2022/09/02 02:18:30;;;;;;;0.20;0.20;;;12.50;99.90;;;;;;5032504;28;20080;-84
2022/09/02 02:20:56;;;;;;;0.10;0.10;;;12.50;99.90;;;;;;5000021;28;20069;-86
2022/09/02 02:23:23;;;;;;;0.30;0.20;;;12.50;99.90;;;;;;5032422;28;20108;-82
2022/09/02 02:25:50;;;;;;;0.10;0.10;;;12.50;99.90;;;;;;5032569;28;20447;-82
2022/09/02 02:28:17;;;;;;;0.30;0.30;;;12.50;99.90;;;;;;5000254;28;20584;-86
2022/09/02 02:30:43;;;;;;;0.13;0.13;;;12.40;99.90;;;;;;5016546;28;20407;-82
2022/09/02 02:33:10;;;;;;;0.13;0.13;;;12.50;99.90;;;;;;5016250;28;20052;-82
2022/09/02 02:35:37;;;;;;;0.15;0.15;;;12.40;99.90;;;;;;5016541;28;20115;-86
2022/09/02 02:38:04;;;;;;;0.10;0.10;;;12.40;99.90;;;;;;4999828;28;20137;-83
2022/09/02 02:40:31;;;;;;;0.20;0.20;;;12.40;99.90;;;;;;4999886;28;20135;-86
2022/09/02 02:42:58;;;;;;;0.08;0.08;;;12.40;99.90;;;;;;5032542;28;20037;-82
2022/09/02 02:45:24;;;;;;;0.08;0.08;;;12.30;99.90;;;;;;5000438;28;20030;-82
2022/09/02 02:47:52;;;;;;;0.15;0.15;;;12.30;99.90;;;;;;5015965;28;20383;-82
2022/09/02 02:50:21;;;;;;;0.30;0.30;;;12.30;99.90;;;;;;5032367;28;20081;-87
2022/09/02 02:52:47;;;;;;;0.10;0.10;;;12.20;99.90;;;;;;5032104;28;20406;-86
2022/09/02 02:55:15;;;;;;;0.20;0.10;;;12.20;99.90;;;;;;5015649;28;20057;-82
2022/09/02 02:57:42;;;;;;;0.68;0.25;;;12.20;99.90;;;;;;5048279;28;20045;-82
2022/09/02 03:00:15;;;;;;;0.10;0.10;;;12.20;99.90;;;;;;5015697;28;20069;-82
2022/09/02 03:02:43;;;;;;;0.10;0.10;;;12.20;99.90;;;;;;5031947;28;20045;-86
2022/09/02 03:05:11;;;;;;;0.10;0.10;;;12.20;99.90;;;;;;5015290;28;20495;-86
2022/09/02 03:07:38;;;;;;;0.15;0.10;;;12.20;99.90;;;;;;5031931;28;20038;-84
2022/09/02 03:10:07;;;;;;;0.20;0.20;;;12.10;99.90;;;;;;5031829;28;20053;-86
2022/09/02 03:12:34;;;;;;;0.13;0.13;;;12.10;99.90;;;;;;5031753;28;20038;-82
2022/09/02 03:15:01;;;;;;;0.20;0.20;;;12.00;99.90;;;;;;5015553;28;20042;-86
2022/09/02 03:17:28;;;;;;;0.10;0.10;;;12.00;99.90;;;;;;4999866;28;20376;-86
2022/09/02 03:19:57;;;;;;;0.10;0.10;;;12.00;99.90;;;;;;5031611;28;20042;-86
2022/09/02 03:22:25;;;;;;;0.10;0.10;;;12.00;99.90;;;;;;5015336;28;20756;-83
2022/09/02 03:24:52;;;;;;;0.22;0.22;;;12.00;99.90;;;;;;5047505;28;20042;-86
2022/09/02 03:27:19;;;;;;;0.00;0.00;;;12.20;99.90;;;;;;5031134;28;20064;-82
2022/09/02 03:29:45;;;;;;;0.38;0.35;;;12.00;99.90;;;;;;5015037;28;20042;-86
2022/09/02 03:32:12;;;;;;;0.20;0.20;;;12.00;99.90;;;;;;5014740;28;20042;-83
2022/09/02 03:34:40;;;;;;;0.10;0.10;;;12.00;99.90;;;;;;5015669;28;20034;-86
2022/09/02 03:37:07;;;;;;;0.25;0.25;;;12.00;99.90;;;;;;4998900;28;20499;-87
2022/09/02 03:39:36;;;;;;;0.10;0.10;;;12.00;99.90;;;;;;5031298;28;20042;-87
2022/09/02 03:42:03;;;;;;;0.55;0.20;;;12.00;99.90;;;;;;5031699;28;20107;-86
2022/09/02 03:44:29;;;;;;;0.10;0.10;;;12.00;99.90;;;;;;4998602;28;20085;-82
2022/09/02 03:46:56;;;;;;;0.10;0.10;;;12.00;99.90;;;;;;5031464;28;20029;-87
2022/09/02 03:49:22;;;;;;;0.20;0.20;;;12.10;99.90;;;;;;4998632;28;20521;-82
2022/09/02 03:51:49;;;;;;;0.20;0.20;;;12.10;99.90;;;;;;5015059;28;20052;-86
2022/09/02 03:54:16;;;;;;;0.10;0.10;;;12.00;99.90;;;;;;4998608;28;20038;-87
2022/09/02 03:56:43;;;;;;;0.20;0.20;;;12.00;99.90;;;;;;4998581;28;20045;-87
2022/09/02 03:59:10;;;;;;;0.20;0.20;;;11.90;99.90;;;;;;5013995;28;20042;-82
2022/09/02 04:01:37;;;;;;;0.13;0.13;;;11.90;99.90;;;;;;5015131;28;20040;-87
2022/09/02 04:04:05;;;;;;;0.20;0.20;;;11.90;99.90;;;;;;5015133;28;20541;-82
2022/09/02 04:06:32;;;;;;;0.20;0.20;;;11.90;99.90;;;;;;4979321;28;20081;-82
2022/09/02 04:08:59;;;;;;;0.10;0.10;;;11.90;99.90;;;;;;4979318;28;20104;-87
2022/09/02 04:11:25;;;;;;;0.20;0.20;;;11.90;99.90;;;;;;4978865;28;20038;-86
2022/09/02 04:13:52;;;;;;;0.13;0.13;;;11.80;99.90;;;;;;5011292;28;20128;-82
2022/09/02 04:16:27;;;;;;;0.20;0.20;;;11.80;99.90;;;;;;4978724;28;20038;-86
2022/09/02 04:18:58;;;;;;;0.20;0.20;;;11.80;99.90;;;;;;4994639;28;20121;-82
2022/09/02 04:21:25;;;;;;;0.17;0.17;;;11.80;99.90;;;;;;4978573;28;20042;-82
2022/09/02 04:23:52;;;;;;;0.10;0.10;;;11.80;99.90;;;;;;4978972;28;20047;-82
2022/09/02 04:26:20;;;;;;;0.20;0.20;;;11.80;99.90;;;;;;4978484;28;20038;-87
2022/09/02 04:28:48;;;;;;;0.65;0.20;;;11.80;99.90;;;;;;4978365;28;20053;-87
2022/09/02 04:31:18;;;;;;;0.20;0.20;;;11.80;99.90;;;;;;4978207;28;20471;-86
2022/09/02 04:33:45;;;;;;;0.22;0.22;;;11.70;99.90;;;;;;4994591;28;20062;-82
2022/09/02 04:36:14;;;;;;;0.10;0.10;;;11.70;99.90;;;;;;5010229;28;20065;-82
2022/09/02 04:38:41;;;;;;;0.10;0.10;;;11.70;99.90;;;;;;4978577;28;20038;-86
2022/09/02 04:41:29;;;;;;;0.10;0.10;;;11.60;99.90;;;;;;4994847;28;20104;-86
2022/09/02 04:43:57;;;;;;;0.10;0.10;;;11.70;99.90;;;;;;5010475;28;20039;-82
2022/09/02 04:46:25;;;;;;;0.28;0.20;;;11.60;99.90;;;;;;4994130;28;20046;-86
2022/09/02 04:48:52;;;;;;;0.20;0.20;;;11.70;99.90;;;;;;4994668;28;20081;-87
2022/09/02 04:51:22;;;;;;;0.15;0.15;;;11.70;99.90;;;;;;4978197;28;20468;-82
2022/09/02 04:53:51;;;;;;;0.20;0.20;;;11.70;99.90;;;;;;5011120;28;20133;-82
2022/09/02 04:56:23;;;;;;;0.17;0.17;;;11.70;99.90;;;;;;4978352;28;20092;-87
2022/09/02 04:58:51;;;;;;;0.30;0.20;;;11.70;99.90;;;;;;4993965;28;20039;-86
2022/09/02 05:01:22;;;;;;;0.43;0.43;;;11.70;99.90;;;;;;4978608;28;20046;-86
2022/09/02 05:03:50;;;;;;;0.20;0.20;;;11.70;99.90;;;;;;5010421;28;20044;-86
2022/09/02 05:06:20;;;;;;;0.20;0.20;;;11.60;99.90;;;;;;5026481;28;20558;-86
2022/09/02 05:08:48;;;;;;;0.10;0.10;;;11.60;99.90;;;;;;5046382;28;20507;-82
2022/09/02 05:11:18;;;;;;;0.10;0.10;;;11.60;99.90;;;;;;5032373;28;20457;-83
2022/09/02 05:13:49;;;;;;;0.30;0.20;;;11.60;99.90;;;;;;5034214;28;20100;-86
2022/09/02 05:16:17;;;;;;;0.35;0.28;;;11.60;99.90;;;;;;5033178;28;20917;-83
2022/09/02 05:18:43;;;;;;;0.10;0.10;;;11.60;99.90;;;;;;5017528;28;20495;-87
2022/09/02 05:21:10;;;;;;;0.20;0.20;;;11.60;99.90;;;;;;5049759;28;20049;-82
2022/09/02 05:23:37;;;;;;;0.10;0.10;;;11.70;99.90;;;;;;5017049;28;20045;-82
2022/09/02 05:26:05;;;;;;;0.28;0.25;;;11.60;99.90;;;;;;5001722;28;20046;-87
2022/09/02 05:28:33;;;;;;;0.20;0.20;;;11.70;99.90;;;;;;5049710;28;20049;-83
2022/09/02 05:31:05;;;;;;;0.40;0.25;;;11.70;99.90;;;;;;5017701;28;20061;-87
2022/09/02 05:33:33;;;;;;;0.30;0.30;;;11.70;99.90;;;;;;5033591;28;21726;-85
2022/09/02 05:36:01;;;;;;;0.20;0.20;;;11.80;99.90;;;;;;5029937;28;20046;-87
2022/09/02 05:38:28;;;;;;;0.10;0.10;;;11.80;99.90;;;;;;5029702;28;20042;-82
2022/09/02 05:40:55;;;;;;;0.32;0.30;;;11.80;99.90;;;;;;5013502;28;20101;-86
2022/09/02 05:43:21;;;;;;;0.20;0.20;;;11.90;99.90;;;;;;5013718;28;20069;-87
2022/09/02 05:45:48;;;;;;;0.20;0.20;;;11.90;99.90;;;;;;5013519;28;20551;-82
2022/09/02 05:51:04;;;;;;;0.10;0.10;;;12.00;99.90;;;;;;5002466;28;20047;-82
2022/09/02 05:53:31;;;;;;;0.20;0.20;;;12.00;99.90;;;;;;5013327;28;20129;-86
2022/09/02 05:56:02;;;;;;;0.20;0.20;;;12.00;99.90;;;;;;5013427;28;20443;-82
2022/09/02 05:58:30;;;;;;;0.10;0.10;;;12.10;99.90;;;;;;4997196;28;20046;-82
2022/09/02 06:00:57;;;;;;;0.17;0.17;;;12.20;99.90;;;;;;4994468;28;20410;-82
2022/09/02 06:03:24;;;;;;;0.13;0.10;;;12.20;99.90;;;;;;5016995;28;20045;-83
2022/09/02 06:05:56;;;;;;;0.10;0.10;;;12.30;99.90;;;;;;5000470;28;20483;-82
2022/09/02 06:08:23;;;;;;;0.22;0.20;;;12.30;99.90;;;;;;5032165;28;20100;-86
2022/09/02 06:10:50;;;;;;;0.20;0.20;;;12.40;99.90;;;;;;5000955;28;20189;-82
2022/09/02 06:13:21;;;;;;;0.17;0.17;;;12.40;99.90;;;;;;4999959;28;20506;-82
2022/09/02 06:15:49;;;;;;;0.10;0.10;;;12.40;99.90;;;;;;5000569;28;20038;-86
2022/09/02 06:18:16;;;;;;;0.30;0.30;;;12.50;99.90;;;;;;5018344;28;20097;-86
2022/09/02 06:20:46;;;;;;;0.20;0.20;;;12.50;99.90;;;;;;5012508;28;20503;-82
2022/09/02 06:23:13;;;;;;;0.15;0.13;;;12.60;99.90;;;;;;5028889;28;20088;-83
2022/09/02 06:25:43;;;;;;;0.10;0.10;;;12.60;99.90;;;;;;4980714;28;20061;-86
2022/09/02 06:28:10;;;;;;;0.20;0.20;;;12.70;99.90;;;;;;5034444;28;20038;-82
2022/09/02 06:30:39;;;;;;;0.25;0.25;;;12.80;99.90;;;;;;5015580;28;20514;-86
2022/09/02 06:33:05;;;;;;;0.32;0.25;;;12.80;99.90;;;;;;5000554;28;20038;-86
2022/09/02 06:35:37;;;;;;;0.60;0.30;;;12.90;99.90;;;;;;5041454;28;20048;-85
2022/09/02 06:38:04;;;;;;;0.22;0.20;;;13.00;99.90;;;;;;5028520;28;20038;-85
2022/09/02 06:40:31;;;;;;;0.22;0.20;;;13.00;99.90;;;;;;5003841;28;20078;-83
2022/09/02 06:42:57;;;;;;;0.10;0.10;;;13.10;99.90;;;;;;5021102;28;20433;-85
2022/09/02 06:45:24;;;;;;;0.10;0.10;;;13.20;99.90;;;;;;5050786;28;20135;-83
2022/09/02 06:47:54;;;;;;;0.17;0.17;;;13.30;99.90;;;;;;5015280;28;20034;-86
2022/09/02 06:50:21;;;;;;;0.10;0.10;;;13.30;99.90;;;;;;4997715;28;20042;-85
2022/09/02 06:52:48;;;;;;;0.20;0.20;;;13.40;99.90;;;;;;5014925;28;20038;-82
2022/09/02 06:55:16;;;;;;;0.10;0.10;;;13.40;99.90;;;;;;5015652;28;20041;-83
2022/09/02 06:57:43;;;;;;;0.20;0.20;;;13.60;99.90;;;;;;4999461;28;20041;-85
2022/09/02 07:00:10;;;;;;;0.17;0.17;;;13.60;99.90;;;;;;4999136;28;20068;-83
2022/09/02 07:02:37;;;;;;;0.20;0.20;;;13.70;99.90;;;;;;4999066;28;20574;-83
2022/09/02 07:05:13;;;;;;;0.20;0.20;;;13.80;99.90;;;;;;5031086;28;20064;-82
2022/09/02 07:07:43;;;;;;;0.10;0.10;;;13.90;99.90;;;;;;5016253;28;20104;-86
2022/09/02 07:10:12;;;;;;;0.10;0.10;;;14.00;99.90;;;;;;5031871;28;20038;-83
2022/09/02 07:12:40;;;;;;;0.20;0.20;;;14.20;99.90;;;;;;5047608;28;20041;-83
2022/09/02 07:15:07;;;;;;;0.20;0.20;;;14.30;99.90;;;;;;5015140;28;20048;-83
2022/09/02 07:17:35;;;;;;;0.10;0.10;;;14.50;99.90;;;;;;5030892;28;20136;-83
2022/09/02 07:20:04;;;;;;;0.20;0.20;;;14.50;99.90;;;;;;5031226;28;20519;-86
2022/09/02 07:22:31;;;;;;;0.35;0.30;;;14.70;99.90;;;;;;5011335;28;20077;-86
2022/09/02 07:24:58;;;;;;;0.20;0.20;;;14.80;99.90;;;;;;5011011;28;20038;-86
2022/09/02 07:27:25;;;;;;;0.17;0.15;;;15.00;99.90;;;;;;5014942;28;20042;-86
2022/09/02 07:29:52;;;;;;;0.20;0.20;;;15.10;99.90;;;;;;5014545;28;20038;-83
2022/09/02 07:32:20;;;;;;;0.10;0.10;;;15.30;99.90;;;;;;5015104;28;20137;-82
2022/09/02 07:34:47;;;;;;;0.20;0.20;;;15.40;99.90;;;;;;5029271;28;20038;-83
2022/09/02 07:37:14;;;;;;;0.28;0.25;;;15.50;99.90;;;;;;5047124;28;20519;-86
2022/09/02 07:39:42;;;;;;;0.20;0.20;;;15.60;99.90;;;;;;5014254;28;20048;-83
2022/09/02 07:42:10;;;;;;;0.10;0.10;;;15.70;99.90;;;;;;5014911;28;20034;-82
2022/09/02 07:44:37;;;;;;;0.63;0.20;;;15.80;99.90;;;;;;5030873;28;20034;-83
2022/09/02 07:47:05;;;;;;;0.15;0.15;;;16.00;99.90;;;;;;4998452;28;20380;-83
2022/09/02 07:49:32;;;;;;;0.10;0.10;;;16.10;99.90;;;;;;5030874;28;20495;-86
2022/09/02 07:51:59;;;;;;;0.10;0.10;;;16.20;99.90;;;;;;5010718;28;20038;-83
2022/09/02 07:54:33;;;;;;;0.20;0.20;;;16.30;99.90;;;;;;5185583;27;1267866;-81
2022/09/02 07:57:00;;;;;;;0.60;0.40;;;16.50;99.90;;;;;;5145154;27;20047;-85
2022/09/02 07:59:27;;;;;;;0.10;0.10;;;16.70;99.90;;;;;;5129193;27;20117;-81
2022/09/02 08:01:53;;;;;;;0.20;0.20;;;16.80;99.90;;;;;;5152085;27;20042;-81
2022/09/02 08:04:23;;;;;;;0.35;0.28;;;16.90;99.90;;;;;;5171765;27;20042;-81
2022/09/02 08:06:52;;;;;;;0.10;0.10;;;17.10;99.90;;;;;;5168089;27;20080;-84
2022/09/02 08:09:20;;;;;;;0.30;0.30;;;17.20;99.90;;;;;;5165426;27;20042;-83
2022/09/02 08:11:48;;;;;;;0.47;0.28;;;17.40;99.90;;;;;;5173281;27;20550;-84
2022/09/02 08:14:23;;;;;;;0.45;0.35;;;17.50;99.90;;;;;;5179835;27;20157;-81
2022/09/02 08:16:50;;;;;;;0.38;0.30;;;17.60;99.90;;;;;;5183816;27;20111;-81
2022/09/02 08:19:17;;;;;;;0.13;0.13;;;17.80;99.90;;;;;;5157236;27;20038;-84
2022/09/02 08:21:44;;;;;;;0.10;0.10;;;17.90;99.90;;;;;;5159991;27;20490;-82
2022/09/02 08:24:11;;;;;;;0.22;0.22;;;18.00;99.90;;;;;;5142011;27;20035;-83
2022/09/02 08:26:38;;;;;;;0.35;0.22;;;18.20;99.90;;;;;;5166387;27;20054;-82
2022/09/02 08:29:06;;;;;;;0.20;0.20;;;18.30;99.90;;;;;;5142704;27;20039;-85
2022/09/02 08:31:35;;;;;;;0.77;0.30;;;18.40;99.90;;;;;;5143890;27;20038;-85
2022/09/02 08:34:02;;;;;;;0.43;0.20;;;18.60;99.90;;;;;;5170923;27;20514;-83
2022/09/02 08:36:29;;;;;;;0.20;0.20;;;18.70;99.90;;;;;;5139384;27;20039;-82
2022/09/02 08:38:56;;;;;;;0.17;0.15;;;18.80;99.90;;;;;;5133606;27;20045;-82
2022/09/02 08:41:26;;;;;;;0.25;0.17;;;18.90;99.90;;;;;;5144212;27;20039;-86
2022/09/02 08:43:57;;;;;;;0.25;0.25;;;19.10;99.90;;;;;;5169527;27;20089;-83
2022/09/02 08:46:26;;;;;;;0.20;0.15;;;19.20;99.90;;;;;;5167977;27;20071;-83
2022/09/02 08:49:19;;;;;;;0.20;0.20;;;19.30;99.90;;;;;;5141892;27;20031;-87
2022/09/02 08:51:50;;;;;;;0.20;0.20;;;19.40;99.90;;;;;;5140493;27;20040;-83
2022/09/02 08:54:55;;;;;;;0.10;0.10;;;19.50;99.90;;;;;;5144729;27;20499;-83
2022/09/02 08:57:26;;;;;;;0.10;0.10;;;19.70;99.90;;;;;;5146920;27;20042;-87
2022/09/02 08:59:57;;;;;;;0.30;0.20;;;19.80;99.90;;;;;;5150293;27;20042;-84
2022/09/02 09:02:28;;;;;;;0.10;0.10;;;20.00;99.90;;;;;;5145939;27;20039;-84
2022/09/02 09:05:01;;;;;;;0.20;0.20;;;20.10;99.90;;;;;;5138561;27;20119;-84
2022/09/02 09:07:46;;;;;;;0.20;0.15;;;20.10;99.90;;;;;;5127173;27;20483;-86
2022/09/02 09:10:59;;;;;;;3.55;0.52;;;20.20;99.90;;;;;;5143697;28;20043;-87
2022/09/02 09:14:05;;;;;;;0.93;0.30;;;20.30;99.90;;;;;;5111026;27;20100;-86
2022/09/02 09:16:48;;;;;;;0.38;0.25;;;20.40;99.90;;;;;;5146803;27;20534;-83
2022/09/02 09:19:35;;;;;;;0.15;0.15;;;20.50;99.90;;;;;;5124832;27;20038;-85
2022/09/02 09:22:02;;;;;;;0.52;0.30;;;20.60;99.90;;;;;;5128769;27;20122;-86
2022/09/02 09:24:43;;;;;;;0.30;0.30;;;20.70;99.90;;;;;;5118105;27;20129;-85
2022/09/02 09:27:16;;;;;;;0.20;0.20;;;20.80;99.90;;;;;;5129900;27;20092;-84
2022/09/02 09:29:43;;;;;;;0.22;0.20;;;20.80;99.90;;;;;;5124368;27;20031;-84
2022/09/02 09:32:22;;;;;;;0.30;0.30;;;20.90;99.90;;;;;;5126361;27;20076;-83
2022/09/02 09:34:52;;;;;;;0.95;0.43;;;21.00;99.90;;;;;;5134840;27;20031;-83
2022/09/02 09:37:38;;;;;;;0.82;0.25;;;21.10;99.90;;;;;;5121084;27;20050;-85
2022/09/02 09:40:23;;;;;;;0.25;0.20;;;21.20;99.90;;;;;;5131909;27;20043;-84
2022/09/02 09:42:56;;;;;;;0.25;0.25;;;21.30;99.90;;;;;;5134374;27;20095;-84
2022/09/02 09:45:33;;;;;;;0.20;0.20;;;21.40;99.90;;;;;;5123359;28;20044;-84
2022/09/02 09:48:15;;;;;;;0.90;0.40;;;21.50;99.90;;;;;;5123177;28;20048;-85
2022/09/02 09:50:47;;;;;;;0.20;0.20;;;21.50;99.90;;;;;;5129378;27;20388;-83
2022/09/02 09:53:18;;;;;;;0.75;0.40;;;21.60;99.90;;;;;;5144463;28;20058;-85
2022/09/02 09:55:54;;;;;;;0.32;0.30;;;21.60;99.90;;;;;;5115467;28;20050;-85
2022/09/02 09:58:25;;;;;;;0.17;0.17;;;21.70;99.80;;;;;;5131750;28;20074;-85
2022/09/02 10:00:55;;;;;;;3.38;0.30;;;21.70;99.90;;;;;;5120448;28;20404;-84
2022/09/02 10:03:26;;;;;;;0.20;0.20;;;21.80;99.90;;;;;;5126485;27;20114;-84
2022/09/02 10:05:57;;;;;;;0.20;0.20;;;21.80;99.90;;;;;;5149466;27;20046;-83
2022/09/02 10:08:26;;;;;;;0.43;0.20;;;21.90;99.90;;;;;;5117872;27;20050;-81
2022/09/02 10:10:59;;;;;;;0.60;0.30;;;22.00;99.90;;;;;;5111047;27;20035;-84
2022/09/02 10:13:32;;;;;;;0.47;0.32;;;22.10;99.30;;;;;;5125915;27;20122;-85
2022/09/02 10:16:53;;;;;;;0.20;0.20;;;22.10;98.30;;;;;;5133567;28;20031;-84
2022/09/02 10:19:36;;;;;;;0.73;0.38;;;22.10;98.90;;;;;;5049741;28;20625;-84
2022/09/02 10:22:34;;;;;;;0.57;0.40;;;22.20;98.90;;;;;;5051708;28;20061;-86
2022/09/02 10:25:19;;;;;;;0.20;0.20;;;22.30;99.50;;;;;;5125136;27;20051;-83
2022/09/02 10:28:28;;;;;;;0.38;0.30;;;22.40;99.50;;;;;;5134118;27;20045;-86
2022/09/02 10:31:12;;;;;;;0.47;0.32;;;22.60;99.30;;;;;;5124157;27;20496;-82
2022/09/02 10:34:05;;;;;;;0.40;0.30;;;22.70;98.70;;;;;;5114108;28;20035;-82
2022/09/02 10:37:01;;;;;;;0.35;0.22;;;22.70;98.40;;;;;;5119819;28;20556;-85
2022/09/02 10:39:38;;;;;;;0.30;0.30;;;22.80;98.40;;;;;;5114480;28;20781;-82
2022/09/02 10:42:23;;;;;;;0.60;0.30;;;22.90;97.80;;;;;;5127901;27;20407;-85
2022/09/02 10:45:02;;;;;;;0.20;0.10;;;23.00;98.80;;;;;;5133660;27;20084;-85
2022/09/02 10:47:38;;;;;;;0.20;0.20;;;23.10;97.20;;;;;;5128990;27;20415;-85
2022/09/02 10:50:13;;;;;;;0.30;0.30;;;23.10;96.60;;;;;;5124981;27;20067;-84
2022/09/02 10:53:08;;;;;;;0.10;0.10;;;23.20;97.40;;;;;;5119523;27;20412;-82
2022/09/02 10:55:59;;;;;;;0.30;0.30;;;23.30;96.70;;;;;;5134013;27;20046;-86
2022/09/02 10:58:44;;;;;;;0.30;0.30;;;23.30;96.20;;;;;;5140479;27;20035;-84
2022/09/02 11:01:27;;;;;;;0.40;0.20;;;23.30;95.10;;;;;;5128349;27;20402;-84
2022/09/02 11:04:12;;;;;;;0.20;0.20;;;23.40;95.00;;;;;;5118900;28;20036;-83
2022/09/02 11:06:40;;;;;;;;;;;23.40;97.00;;;;;;5120881;27;20047;-83
2022/09/02 11:09:10;;;;;;;0.10;0.10;;;23.50;95.60;;;;;;5133184;27;19951;-82
2022/09/02 11:11:51;;;;;;;0.10;0.10;;;23.60;96.30;;;;;;5120263;27;20143;-83
2022/09/02 11:14:33;;;;;;;2.55;0.22;;;23.60;95.90;;;;;;5125855;27;20027;-83
2022/09/02 11:17:18;;;;;;;0.20;0.20;;;23.70;96.40;;;;;;5140014;28;20515;-82
2022/09/02 11:20:00;;;;;;;0.38;0.38;;;23.80;94.80;;;;;;5124268;27;20034;-83
2022/09/02 11:22:39;;;;;;;0.15;0.15;;;23.70;94.80;;;;;;5128881;27;20031;-84
2022/09/02 11:25:18;;;;;;;0.20;0.20;;;23.70;94.30;;;;;;5124892;28;20039;-81
2022/09/02 11:27:59;;;;;;;0.20;0.20;;;23.70;94.30;;;;;;5147124;27;20035;-83
2022/09/02 11:30:48;;;;;;;0.20;0.20;;;23.70;94.40;;;;;;5120320;27;20035;-82
2022/09/02 11:33:25;;;;;;;0.35;0.32;;;23.70;94.90;;;;;;5129497;28;20080;-83
2022/09/02 11:35:52;;;;;;;0.10;0.10;;;23.70;94.20;;;;;;5146345;27;20046;-83
2022/09/02 11:38:35;;;;;;;0.20;0.20;;;23.90;95.40;;;;;;5112842;28;20122;-83
2022/09/02 11:41:05;;;;;;;0.95;0.43;;;23.80;94.30;;;;;;5133449;27;20114;-84
2022/09/02 11:43:51;;;;;;;0.22;0.20;;;24.00;94.20;;;;;;5133952;27;20039;-83
2022/09/02 11:46:18;;;;;;;0.10;0.10;;;24.10;93.90;;;;;;5133147;27;20114;-84
2022/09/02 11:49:22;;;;;;;0.20;0.20;;;24.20;93.90;;;;;;5133489;27;20122;-84
2022/09/02 11:52:04;;;;;;;0.10;0.10;;;24.30;94.20;;;;;;5133386;28;20039;-85
2022/09/02 11:54:40;;;;;;;0.10;0.10;;;24.30;93.70;;;;;;5133168;28;20055;-84
2022/09/02 11:57:13;;;;;;;0.10;0.10;;;24.30;92.90;;;;;;5149928;28;20512;-84
2022/09/02 11:59:52;;;;;;;0.20;0.20;;;24.30;94.10;;;;;;5150453;28;20484;-84
2022/09/02 12:02:36;;;;;;;0.22;0.20;;;24.40;93.10;;;;;;5124779;28;20035;-83
2022/09/02 12:05:31;;;;;;;0.23;0.20;;;24.40;92.70;;;;;;5148221;28;20035;-84
2022/09/02 12:08:26;;;;;;;0.30;0.20;;;24.40;91.60;;;;;;5117041;28;20069;-83
2022/09/02 12:10:59;;;;;;;0.20;0.20;;;24.30;91.80;;;;;;5130272;28;20035;-83
2022/09/02 12:13:47;;;;;;;0.20;0.20;;;24.30;92.40;;;;;;5132588;28;20074;-83
2022/09/02 12:16:35;;;;;;;0.20;0.20;;;24.40;91.20;;;;;;5100547;28;20042;-84
2022/09/02 12:19:06;;;;;;;0.20;0.20;;;24.40;92.30;;;;;;5130465;28;20033;-84
2022/09/02 12:21:37;;;;;;;0.10;0.10;;;24.40;90.50;;;;;;5128712;28;20063;-82
2022/09/02 12:24:09;;;;;;;0.20;0.20;;;24.40;91.90;;;;;;5124627;28;20500;-83
2022/09/02 12:26:39;;;;;;;0.32;0.30;;;24.30;91.50;;;;;;5121141;28;20039;-82
2022/09/02 12:29:26;;;;;;;0.32;0.20;;;24.40;91.10;;;;;;5124005;28;20054;-84
2022/09/02 12:31:53;;;;;;;0.10;0.10;;;24.30;90.10;;;;;;5113910;28;20054;-84
2022/09/02 12:34:20;;;;;;;0.10;0.10;;;24.40;91.70;;;;;;5121064;28;20036;-84
2022/09/02 12:37:02;;;;;;;0.17;0.17;;;24.40;91.30;;;;;;5122371;28;20399;-84
2022/09/02 12:39:31;;;;;;;0.20;0.20;;;24.40;89.90;;;;;;5132655;28;20040;-83
2022/09/02 12:42:11;;;;;;;0.20;0.20;;;24.40;90.70;;;;;;5124422;27;20102;-84
2022/09/02 12:44:56;;;;;;;0.20;0.20;;;24.40;90.10;;;;;;5153288;27;20047;-83
2022/09/02 12:47:31;;;;;;;0.45;0.32;;;24.40;88.80;;;;;;5135543;27;20100;-83
2022/09/02 12:50:36;;;;;;;;;;;24.50;90.00;;;;;;5136239;27;20142;-83
2022/09/02 12:53:13;;;;;;;0.10;0.10;;;24.50;88.90;;;;;;5067085;28;20397;-83
2022/09/02 12:55:40;;;;;;;0.20;0.20;;;24.50;90.50;;;;;;5034927;28;20080;-82
2022/09/02 12:58:15;;;;;;;0.20;0.20;;;24.50;90.00;;;;;;5107357;27;20043;-81
2022/09/02 13:00:45;;;;;;;0.10;0.10;;;24.50;88.70;;;;;;5138142;27;20042;-83
2022/09/02 13:03:27;;;;;;;0.10;0.10;;;24.60;90.80;;;;;;5133196;27;20115;-81
2022/09/02 13:06:06;;;;;;;0.40;0.20;;;24.60;87.80;;;;;;5132487;28;20569;-83
2022/09/02 13:08:36;;;;;;;0.50;0.30;;;24.60;89.10;;;;;;5126630;27;20121;-85
2022/09/02 13:11:24;;;;;;;0.20;0.20;;;24.60;87.80;;;;;;5152555;27;20115;-83
2022/09/02 13:13:54;;;;;;;0.20;0.20;;;24.60;88.60;;;;;;5139085;27;20046;-84
2022/09/02 13:16:32;;;;;;;0.22;0.22;;;24.50;88.10;;;;;;5152658;27;20075;-81